Time;durP1;ratioP1;P1;durP2;ratioP2;P2;SDS_P1;SDS_P2;PMS_P1;PMS_P2;Temp;Humidity;BMP_temperature;BMP_pressure;BME280_temperature;BME280_humidity;BME280_pressure;Samples;Min_cycle;Max_cycle;Signal;HPM_P1;HPM_P2
2022/09/15 00:01:54;;;;;;;1999.90;999.90;;;20.40;99.90;;;;;;5054455;28;20079;-79
2022/09/15 00:04:19;;;;;;;1999.90;999.90;;;20.40;99.90;;;;;;5054823;28;20108;-72
2022/09/15 00:06:45;;;;;;;1999.90;999.90;;;20.40;99.90;;;;;;5055061;28;20086;-72
2022/09/15 00:09:10;;;;;;;1999.90;999.90;;;20.40;99.90;;;;;;5054519;28;20033;-72
2022/09/15 00:11:37;;;;;;;1999.90;999.90;;;20.40;99.90;;;;;;5042751;28;20029;-78
2022/09/15 00:14:05;;;;;;;1999.90;999.90;;;20.40;99.90;;;;;;5034711;28;20036;-78
2022/09/15 00:16:31;;;;;;;1999.90;999.90;;;20.40;99.90;;;;;;5034590;28;20018;-78
2022/09/15 00:18:59;;;;;;;1999.90;999.90;;;20.30;99.90;;;;;;5039393;28;20143;-78
2022/09/15 00:21:29;;;;;;;1999.90;999.90;;;20.30;99.90;;;;;;5054780;28;20041;-79
2022/09/15 00:23:55;;;;;;;1999.90;999.90;;;20.30;99.90;;;;;;5054228;28;20029;-78
2022/09/15 00:26:23;;;;;;;1999.90;999.90;;;20.30;99.90;;;;;;5054664;28;20021;-79
2022/09/15 00:28:49;;;;;;;1999.90;999.90;;;20.30;99.90;;;;;;5054856;28;20041;-78
2022/09/15 00:31:19;;;;;;;1999.90;999.90;;;20.20;99.90;;;;;;5054434;28;20033;-77
2022/09/15 00:33:49;;;;;;;1999.90;999.90;;;20.20;99.90;;;;;;5052846;28;20033;-78
2022/09/15 00:36:15;;;;;;;1999.90;999.90;;;20.10;99.90;;;;;;5054053;28;20021;-71
2022/09/15 00:38:41;;;;;;;1999.90;999.90;;;20.10;99.90;;;;;;5054238;28;20489;-78
2022/09/15 00:41:10;;;;;;;1999.90;999.90;;;20.20;99.90;;;;;;5054376;28;20104;-72
2022/09/15 00:44:22;;;;;;;1999.90;999.90;;;20.10;99.90;;;;;;5054058;28;20047;-78
2022/09/15 00:46:51;;;;;;;1999.90;999.90;;;20.10;99.90;;;;;;5049530;28;20083;-78
2022/09/15 00:49:23;;;;;;;1999.90;999.90;;;20.00;99.90;;;;;;5034227;28;20052;-78
2022/09/15 00:52:13;;;;;;;1999.90;999.90;;;20.10;99.90;;;;;;5033662;28;20200;-78
2022/09/15 00:54:48;;;;;;;1999.90;999.90;;;20.00;99.90;;;;;;5062717;28;20038;-72
2022/09/15 00:57:19;;;;;;;1999.90;999.90;;;20.00;99.90;;;;;;5034277;28;20041;-78
2022/09/15 00:59:46;;;;;;;1999.90;999.90;;;20.00;99.90;;;;;;5043823;28;20033;-78
2022/09/15 01:02:17;;;;;;;1999.90;999.90;;;20.00;99.90;;;;;;5053363;28;20088;-78
2022/09/15 01:04:43;;;;;;;1999.90;999.90;;;20.00;99.90;;;;;;5053919;28;20033;-78
2022/09/15 01:07:21;;;;;;;1999.90;999.90;;;20.00;99.90;;;;;;5053959;28;20395;-72
2022/09/15 01:09:56;;;;;;;1999.90;999.90;;;20.00;99.90;;;;;;5053542;28;20025;-72
2022/09/15 01:12:24;;;;;;;1999.90;999.90;;;20.00;99.90;;;;;;5035505;28;20014;-78
2022/09/15 01:14:50;;;;;;;1999.90;999.90;;;20.00;99.90;;;;;;5033180;28;20032;-79
2022/09/15 01:17:33;;;;;;;1999.90;999.90;;;20.00;99.90;;;;;;5032372;28;20388;-78
2022/09/15 01:20:37;;;;;;;1999.90;999.90;;;19.90;99.90;;;;;;5045614;28;20109;-79
2022/09/15 01:23:08;;;;;;;1999.90;999.90;;;19.90;99.90;;;;;;5053413;28;20021;-72
2022/09/15 01:25:46;;;;;;;1999.90;999.90;;;19.90;99.90;;;;;;5053433;28;20033;-79
2022/09/15 01:28:40;;;;;;;1999.90;999.90;;;19.90;99.90;;;;;;5053383;28;20032;-72
2022/09/15 01:31:16;;;;;;;1999.90;999.90;;;19.90;99.90;;;;;;5053210;28;20053;-72
2022/09/15 01:33:51;;;;;;;1999.90;999.90;;;19.90;99.90;;;;;;5053257;28;20064;-72
2022/09/15 01:36:56;;;;;;;1999.90;999.90;;;19.80;99.90;;;;;;5053056;28;20020;-73
2022/09/15 01:39:29;;;;;;;1999.90;999.90;;;19.80;99.90;;;;;;5053133;28;20047;-78
2022/09/15 01:41:58;;;;;;;;;;;19.80;99.90;;;;;;5052304;28;20044;-78
2022/09/15 01:44:53;;;;;;;1999.90;999.90;;;19.80;99.90;;;;;;5053075;28;19948;-78
2022/09/15 01:47:21;;;;;;;1999.90;999.90;;;19.80;99.90;;;;;;5044479;28;20431;-78
2022/09/15 01:49:58;;;;;;;1999.90;999.90;;;19.80;99.90;;;;;;5032991;28;20103;-71
2022/09/15 01:52:24;;;;;;;1999.90;999.90;;;19.80;99.90;;;;;;5032461;28;20025;-78
2022/09/15 01:54:54;;;;;;;1999.90;999.90;;;19.80;99.90;;;;;;5033186;28;20035;-78
2022/09/15 01:57:21;;;;;;;1999.90;999.90;;;19.80;99.90;;;;;;5033141;28;20026;-78
2022/09/15 01:59:53;;;;;;;1999.90;999.90;;;19.80;99.90;;;;;;5042842;28;20395;-72
2022/09/15 02:02:38;;;;;;;1999.90;999.90;;;19.80;99.90;;;;;;5052269;28;20025;-78
2022/09/15 02:05:19;;;;;;;1999.90;999.90;;;19.80;99.90;;;;;;5052947;28;20025;-78
2022/09/15 02:07:50;;;;;;;1999.90;999.90;;;19.80;99.90;;;;;;5052801;28;20025;-78
2022/09/15 02:10:34;;;;;;;1999.90;999.90;;;19.80;99.90;;;;;;5052288;28;20476;-78
2022/09/15 02:13:10;;;;;;;1999.90;999.90;;;19.90;99.90;;;;;;5052624;28;20075;-72
2022/09/15 02:15:41;;;;;;;1999.90;999.90;;;19.90;99.90;;;;;;5052122;28;20029;-78
2022/09/15 02:18:09;;;;;;;1999.90;999.90;;;19.90;99.90;;;;;;5052627;28;20055;-72
2022/09/15 02:20:47;;;;;;;1999.90;999.90;;;19.90;99.90;;;;;;5051951;28;20021;-77
2022/09/15 02:23:37;;;;;;;1999.90;999.90;;;19.90;99.90;;;;;;5052467;28;20020;-79
2022/09/15 02:26:08;;;;;;;1999.90;999.90;;;19.90;99.90;;;;;;5052371;28;20408;-71
2022/09/15 02:28:37;;;;;;;1999.90;999.90;;;19.90;99.90;;;;;;5052419;28;20033;-78
2022/09/15 02:31:09;;;;;;;1999.90;999.90;;;19.90;99.90;;;;;;5051830;28;20056;-78
2022/09/15 02:33:43;;;;;;;1999.90;999.90;;;19.90;99.90;;;;;;5052325;28;20056;-78
2022/09/15 02:36:12;;;;;;;1999.90;999.90;;;19.90;99.90;;;;;;5052382;28;20035;-72
2022/09/15 02:38:45;;;;;;;1999.90;999.90;;;19.90;99.90;;;;;;5052665;28;20056;-73
2022/09/15 02:41:12;;;;;;;1999.90;999.90;;;19.90;99.90;;;;;;5052411;28;20463;-72
2022/09/15 02:43:46;;;;;;;1999.90;999.90;;;20.00;99.90;;;;;;5052215;28;20033;-72
2022/09/15 02:46:14;;;;;;;1999.90;999.90;;;19.90;99.90;;;;;;5051913;28;20029;-78
2022/09/15 02:48:40;;;;;;;1999.90;999.90;;;19.90;99.90;;;;;;5033048;28;20030;-78
2022/09/15 02:51:06;;;;;;;1999.90;999.90;;;19.80;99.90;;;;;;5031042;28;20561;-72
2022/09/15 02:53:31;;;;;;;1999.90;999.90;;;19.80;99.90;;;;;;5031713;28;20033;-72
2022/09/15 02:55:57;;;;;;;1999.90;999.90;;;19.80;99.90;;;;;;5032265;28;20029;-72
2022/09/15 02:58:23;;;;;;;1999.90;999.90;;;19.80;99.90;;;;;;5032030;28;20025;-79
2022/09/15 03:00:49;;;;;;;1999.90;999.90;;;19.80;99.90;;;;;;5050425;28;20029;-78
2022/09/15 03:03:17;;;;;;;1999.90;999.90;;;19.80;99.90;;;;;;5052210;28;20017;-78
2022/09/15 03:05:43;;;;;;;1999.90;999.90;;;19.80;99.90;;;;;;5052049;28;20028;-72
2022/09/15 03:08:08;;;;;;;1999.90;999.90;;;19.80;99.90;;;;;;5052021;28;20037;-72
2022/09/15 03:10:34;;;;;;;1999.90;999.90;;;19.70;99.90;;;;;;5051742;28;20028;-78
2022/09/15 03:12:59;;;;;;;1999.90;999.90;;;19.70;99.90;;;;;;5051948;28;20033;-78
2022/09/15 03:15:26;;;;;;;1999.90;999.90;;;19.60;99.90;;;;;;5050708;28;20040;-72
2022/09/15 03:17:52;;;;;;;1999.90;999.90;;;19.60;99.90;;;;;;5050622;28;20028;-78
2022/09/15 03:20:26;;;;;;;1999.90;999.90;;;19.60;99.90;;;;;;5049907;28;20029;-79
2022/09/15 03:22:52;;;;;;;1999.90;999.90;;;19.60;99.90;;;;;;5051926;28;20079;-78
2022/09/15 03:25:18;;;;;;;1999.90;999.90;;;19.60;99.90;;;;;;5052034;28;20029;-78
2022/09/15 03:27:44;;;;;;;1999.90;999.90;;;19.50;99.90;;;;;;5051587;28;20096;-78
2022/09/15 03:30:11;;;;;;;1999.90;999.90;;;19.50;99.90;;;;;;5051573;28;20140;-72
2022/09/15 03:32:36;;;;;;;1999.90;999.90;;;19.50;99.90;;;;;;5051488;28;20021;-78
2022/09/15 03:35:03;;;;;;;1999.90;999.90;;;19.50;99.90;;;;;;5051933;28;20033;-77
2022/09/15 03:37:29;;;;;;;1999.90;999.90;;;19.50;99.90;;;;;;5051462;28;20427;-78
2022/09/15 03:39:54;;;;;;;1999.90;999.90;;;19.50;99.90;;;;;;5051685;28;20025;-78
2022/09/15 03:42:20;;;;;;;1999.90;999.90;;;19.50;99.90;;;;;;5051638;28;20013;-78
2022/09/15 03:44:46;;;;;;;1999.90;999.90;;;19.50;99.90;;;;;;5054419;28;20036;-78
2022/09/15 03:47:12;;;;;;;1999.90;999.90;;;19.50;99.90;;;;;;5047891;28;20021;-78
2022/09/15 03:49:37;;;;;;;1999.90;999.90;;;19.50;99.90;;;;;;5035215;28;20041;-78
2022/09/15 03:52:03;;;;;;;1999.90;999.90;;;19.50;99.90;;;;;;5035121;28;20107;-78
2022/09/15 03:54:29;;;;;;;1999.90;999.90;;;19.50;99.90;;;;;;5034546;28;20118;-78
2022/09/15 03:56:54;;;;;;;1999.90;999.90;;;19.60;99.90;;;;;;5035349;28;20025;-72
2022/09/15 03:59:20;;;;;;;1999.90;999.90;;;19.60;99.90;;;;;;5041530;28;20028;-71
2022/09/15 04:01:47;;;;;;;1999.90;999.90;;;19.60;99.90;;;;;;5054624;28;20033;-72
2022/09/15 04:04:13;;;;;;;1999.90;999.90;;;19.60;99.90;;;;;;5054938;28;20399;-72
2022/09/15 04:06:40;;;;;;;1999.90;999.90;;;19.60;99.90;;;;;;5054960;28;20025;-79
2022/09/15 04:09:06;;;;;;;1999.90;999.90;;;19.60;99.90;;;;;;5055151;28;20112;-72
2022/09/15 04:11:32;;;;;;;1999.90;999.90;;;19.60;99.90;;;;;;5054447;28;20033;-78
2022/09/15 04:13:58;;;;;;;1999.90;999.90;;;19.60;99.90;;;;;;5054355;28;20112;-72
2022/09/15 04:16:26;;;;;;;1999.90;999.90;;;19.60;99.90;;;;;;5054084;28;20109;-78
2022/09/15 04:18:54;;;;;;;1999.90;999.90;;;19.60;99.90;;;;;;5054738;28;20435;-78
2022/09/15 04:21:22;;;;;;;1999.90;999.90;;;19.60;99.90;;;;;;5054835;28;20021;-78
2022/09/15 04:23:48;;;;;;;1999.90;999.90;;;19.60;99.90;;;;;;5054238;28;20399;-71
2022/09/15 04:26:32;;;;;;;1999.90;999.90;;;19.60;99.90;;;;;;5054511;28;20017;-78
2022/09/15 04:28:59;;;;;;;1999.90;999.90;;;19.60;99.90;;;;;;5054730;28;20041;-72
2022/09/15 04:31:24;;;;;;;1999.90;999.90;;;19.60;99.90;;;;;;5054516;28;20413;-79
2022/09/15 04:33:54;;;;;;;1999.90;999.90;;;19.60;99.90;;;;;;5053640;28;20040;-78
2022/09/15 04:36:22;;;;;;;1999.90;999.90;;;19.60;99.90;;;;;;5054134;28;20052;-78
2022/09/15 04:38:49;;;;;;;1999.90;999.90;;;19.50;99.90;;;;;;5052991;28;20021;-72
2022/09/15 04:41:16;;;;;;;1999.90;999.90;;;19.50;99.90;;;;;;5054497;28;20021;-78
2022/09/15 04:43:42;;;;;;;1999.90;999.90;;;19.50;99.90;;;;;;5054394;28;20021;-79
2022/09/15 04:46:08;;;;;;;1999.90;999.90;;;19.50;99.90;;;;;;5053903;28;20029;-77
2022/09/15 04:48:34;;;;;;;1999.90;999.90;;;19.50;99.90;;;;;;5035584;28;20079;-71
2022/09/15 04:51:02;;;;;;;1999.90;999.90;;;19.40;99.90;;;;;;5034185;28;20452;-78
2022/09/15 04:53:28;;;;;;;1999.90;999.90;;;19.40;99.90;;;;;;5034189;28;20009;-79
2022/09/15 04:56:04;;;;;;;1999.90;999.90;;;19.40;99.90;;;;;;5033114;28;20034;-80
2022/09/15 04:58:30;;;;;;;1999.90;999.90;;;19.30;99.90;;;;;;5049566;28;20829;-78
2022/09/15 05:00:55;;;;;;;1999.90;999.90;;;19.30;99.90;;;;;;5052755;28;20407;-79
2022/09/15 05:03:21;;;;;;;1999.90;999.90;;;19.30;99.90;;;;;;5053787;28;20100;-79
2022/09/15 05:05:46;;;;;;;1999.90;999.90;;;19.30;99.90;;;;;;5053685;28;20854;-80
2022/09/15 05:08:12;;;;;;;1999.90;999.90;;;19.20;99.90;;;;;;5053606;28;20105;-72
2022/09/15 05:10:38;;;;;;;1999.90;999.90;;;19.20;99.90;;;;;;5053233;28;20487;-80
2022/09/15 05:13:04;;;;;;;1999.90;999.90;;;19.20;99.90;;;;;;5053677;28;20029;-72
2022/09/15 05:15:29;;;;;;;1999.90;999.90;;;19.20;99.90;;;;;;5053466;28;20064;-72
2022/09/15 05:17:55;;;;;;;1999.90;999.90;;;19.10;99.90;;;;;;5052657;28;20108;-80
2022/09/15 05:20:21;;;;;;;1999.90;999.90;;;19.20;99.90;;;;;;5052995;28;20025;-80
2022/09/15 05:22:47;;;;;;;1999.90;999.90;;;19.10;99.90;;;;;;5053218;28;20025;-73
2022/09/15 05:25:12;;;;;;;1999.90;999.90;;;19.10;99.90;;;;;;5053410;28;20033;-73
2022/09/15 05:27:38;;;;;;;1999.90;999.90;;;19.10;99.90;;;;;;5053250;28;20377;-73
2022/09/15 05:30:05;;;;;;;1999.90;999.90;;;19.10;99.90;;;;;;5052664;28;20063;-72
2022/09/15 05:32:31;;;;;;;1999.90;999.90;;;19.20;99.90;;;;;;5052906;28;20475;-80
2022/09/15 05:34:56;;;;;;;1999.90;999.90;;;19.10;99.90;;;;;;5053048;28;20071;-80
2022/09/15 05:37:22;;;;;;;1999.90;999.90;;;19.20;99.90;;;;;;5033548;28;20045;-80
2022/09/15 05:39:48;;;;;;;1999.90;999.90;;;19.30;99.90;;;;;;5048713;28;20068;-79
2022/09/15 05:42:14;;;;;;;1999.90;999.90;;;19.30;99.90;;;;;;5050975;28;20017;-79
2022/09/15 05:44:39;;;;;;;1999.90;999.90;;;19.30;99.90;;;;;;5049705;28;20029;-80
2022/09/15 05:47:05;;;;;;;1999.90;999.90;;;19.30;99.90;;;;;;5046170;28;20104;-73
2022/09/15 05:49:31;;;;;;;1999.90;999.90;;;19.40;99.90;;;;;;5032726;28;20378;-72
2022/09/15 05:51:57;;;;;;;1999.90;999.90;;;19.40;99.90;;;;;;5032813;28;20025;-80
2022/09/15 05:54:22;;;;;;;1999.90;999.90;;;19.40;99.90;;;;;;5045527;28;20029;-80
2022/09/15 05:56:48;;;;;;;1999.90;999.90;;;19.40;99.90;;;;;;5051173;28;20017;-80
2022/09/15 05:59:14;;;;;;;1999.90;999.90;;;19.50;99.90;;;;;;5051891;28;20703;-72
2022/09/15 06:01:39;;;;;;;1999.90;999.90;;;19.50;99.90;;;;;;5050255;28;20094;-80
2022/09/15 06:04:05;;;;;;;1999.90;999.90;;;19.50;99.90;;;;;;5052331;28;20436;-80
2022/09/15 06:06:32;;;;;;;1999.90;999.90;;;19.60;99.90;;;;;;5051257;28;20037;-73
2022/09/15 06:08:58;;;;;;;1999.90;999.90;;;19.60;99.90;;;;;;5050258;28;20032;-79
2022/09/15 06:11:29;;;;;;;1999.90;999.90;;;19.70;99.90;;;;;;5041339;28;20033;-79
2022/09/15 06:13:58;;;;;;;1999.90;999.90;;;19.70;99.90;;;;;;5050922;28;20542;-80
2022/09/15 06:16:24;;;;;;;1999.90;999.90;;;19.80;99.90;;;;;;5051186;28;20041;-80
2022/09/15 06:18:51;;;;;;;1999.90;999.90;;;19.80;99.90;;;;;;5051410;28;20096;-79
2022/09/15 06:21:28;;;;;;;1999.90;999.90;;;19.90;99.90;;;;;;5051698;28;20029;-73
2022/09/15 06:23:55;;;;;;;1999.90;999.90;;;19.90;99.90;;;;;;5049633;28;20017;-80
2022/09/15 06:26:22;;;;;;;1999.90;999.90;;;19.90;99.90;;;;;;5045012;28;20392;-79
2022/09/15 06:28:49;;;;;;;1999.90;999.90;;;19.90;99.90;;;;;;5042769;28;20393;-80
2022/09/15 06:31:16;;;;;;;1999.90;999.90;;;19.90;99.90;;;;;;5048693;28;20068;-80
2022/09/15 06:33:47;;;;;;;1999.90;999.90;;;20.00;99.90;;;;;;5051014;28;20036;-73
2022/09/15 06:36:14;;;;;;;1999.90;999.90;;;20.10;99.90;;;;;;5033937;28;20036;-72
2022/09/15 06:38:40;;;;;;;1999.90;999.90;;;20.10;99.90;;;;;;5040578;28;20021;-79
2022/09/15 06:41:07;;;;;;;1999.90;999.90;;;20.10;99.90;;;;;;5049403;28;20040;-80
2022/09/15 06:43:33;;;;;;;1999.90;999.90;;;20.10;99.90;;;;;;5031450;28;20026;-80
2022/09/15 06:46:06;;;;;;;1999.90;999.90;;;20.20;99.90;;;;;;5044746;28;20029;-80
2022/09/15 06:48:33;;;;;;;1999.90;999.90;;;20.20;99.90;;;;;;5031388;28;20021;-73
2022/09/15 06:50:59;;;;;;;1999.90;999.90;;;20.30;99.90;;;;;;5044530;28;20040;-80
2022/09/15 06:53:27;;;;;;;1999.90;999.90;;;20.30;99.90;;;;;;5047772;28;20784;-80
2022/09/15 06:55:53;;;;;;;1999.90;999.90;;;20.40;99.90;;;;;;5049342;28;20025;-72
2022/09/15 06:58:19;;;;;;;1999.90;999.90;;;20.40;99.90;;;;;;5044286;28;20017;-72
2022/09/15 07:00:45;;;;;;;1999.90;999.90;;;20.50;99.90;;;;;;5040433;28;20060;-74
2022/09/15 07:03:11;;;;;;;1999.90;999.90;;;20.50;99.90;;;;;;5048121;28;20021;-79
2022/09/15 07:05:36;;;;;;;1999.90;999.90;;;20.50;99.90;;;;;;5050195;28;20033;-79
2022/09/15 07:08:02;;;;;;;1999.90;999.90;;;20.50;99.90;;;;;;5050595;28;20032;-79
2022/09/15 07:10:28;;;;;;;1999.90;999.90;;;20.50;99.90;;;;;;5049485;28;20029;-80
2022/09/15 07:12:54;;;;;;;1999.90;999.90;;;20.60;99.90;;;;;;5050796;28;20032;-72
2022/09/15 07:15:22;;;;;;;1999.90;999.90;;;20.60;99.90;;;;;;5049453;28;20029;-79
2022/09/15 07:17:47;;;;;;;1999.90;999.90;;;20.70;99.90;;;;;;5047443;28;20045;-80
2022/09/15 07:20:13;;;;;;;1999.90;999.90;;;20.70;99.90;;;;;;5053143;28;20052;-80
2022/09/15 07:22:38;;;;;;;1999.90;999.90;;;20.70;99.90;;;;;;5053571;28;20490;-80
2022/09/15 07:25:05;;;;;;;1999.90;999.90;;;20.70;99.90;;;;;;5053647;28;20103;-72
2022/09/15 07:27:30;;;;;;;1999.90;999.90;;;20.90;99.90;;;;;;5052948;28;20040;-72
2022/09/15 07:29:57;;;;;;;1999.90;999.90;;;20.80;99.90;;;;;;5053605;28;20061;-80
2022/09/15 07:32:23;;;;;;;1999.90;999.90;;;20.80;99.90;;;;;;5054069;28;20025;-79
2022/09/15 07:34:50;;;;;;;1999.90;999.90;;;20.90;99.90;;;;;;5052931;28;20025;-80
2022/09/15 07:37:16;;;;;;;1999.90;999.90;;;21.10;99.90;;;;;;5053354;28;20484;-79
2022/09/15 07:39:42;;;;;;;1999.90;999.90;;;21.30;99.90;;;;;;5051896;28;20032;-72
2022/09/15 07:42:07;;;;;;;1999.90;999.90;;;21.60;99.90;;;;;;5050612;28;20017;-72
2022/09/15 07:44:33;;;;;;;1999.90;999.90;;;21.90;99.90;;;;;;5050301;28;20041;-74
2022/09/15 07:46:59;;;;;;;1999.90;999.90;;;22.10;99.90;;;;;;5050253;28;20511;-80
2022/09/15 07:49:24;;;;;;;1999.90;999.90;;;22.00;99.90;;;;;;5052926;28;20033;-79
2022/09/15 07:51:50;;;;;;;1999.90;999.90;;;22.00;99.90;;;;;;5053487;28;20082;-72
2022/09/15 07:54:15;;;;;;;1999.90;999.90;;;22.40;99.90;;;;;;5053609;28;20399;-79
2022/09/15 07:56:41;;;;;;;1999.90;999.90;;;22.40;99.90;;;;;;5053564;28;20032;-80
2022/09/15 07:59:07;;;;;;;1999.90;999.90;;;22.40;99.90;;;;;;5052911;28;20021;-79
2022/09/15 08:01:33;;;;;;;1999.90;999.90;;;22.70;99.90;;;;;;5051554;28;20018;-81
2022/09/15 08:03:58;;;;;;;1999.90;999.90;;;22.80;99.90;;;;;;5053517;28;20029;-72
2022/09/15 08:06:25;;;;;;;1999.90;999.90;;;22.60;99.90;;;;;;5053421;28;20514;-72
2022/09/15 08:08:51;;;;;;;1999.90;999.90;;;22.60;99.90;;;;;;5052834;28;20025;-80
2022/09/15 08:11:19;;;;;;;1999.90;999.90;;;22.40;99.90;;;;;;5051053;28;20050;-73
2022/09/15 08:13:49;;;;;;;1999.90;999.90;;;22.80;99.90;;;;;;5052961;28;20126;-80
2022/09/15 08:16:18;;;;;;;1999.90;999.90;;;24.70;99.90;;;;;;5048977;28;20034;-73
2022/09/15 08:18:44;;;;;;;1999.90;999.90;;;24.50;99.90;;;;;;5072997;28;20024;-72
2022/09/15 08:21:15;;;;;;;1999.90;999.90;;;24.10;99.90;;;;;;5072878;28;20032;-78
2022/09/15 08:23:41;;;;;;;1999.90;999.90;;;23.70;99.90;;;;;;5054050;28;20033;-80
2022/09/15 08:26:09;;;;;;;1999.90;999.90;;;23.70;99.90;;;;;;5052839;28;20028;-80
2022/09/15 08:28:36;;;;;;;1999.90;999.90;;;24.70;99.90;;;;;;5052204;28;20471;-80
2022/09/15 08:31:04;;;;;;;1999.90;999.90;;;24.90;99.90;;;;;;5051038;28;20135;-73
2022/09/15 08:33:30;;;;;;;1999.90;999.90;;;25.40;99.90;;;;;;5033083;28;20594;-79
2022/09/15 08:36:02;;;;;;;1999.90;999.90;;;24.50;99.90;;;;;;5032656;28;20025;-80
2022/09/15 08:38:27;;;;;;;1999.90;999.90;;;24.40;99.90;;;;;;5045074;28;20026;-79
2022/09/15 08:41:15;;;;;;;1999.90;999.90;;;24.00;99.90;;;;;;5046007;28;20032;-78
2022/09/15 08:43:59;;;;;;;1999.90;999.90;;;26.90;99.90;;;;;;5046576;28;20119;-80
2022/09/15 08:46:38;;;;;;;1999.90;999.90;;;26.80;99.90;;;;;;5049996;28;20025;-73
2022/09/15 08:49:12;;;;;;;1999.90;999.90;;;25.10;99.90;;;;;;5051968;28;20025;-79
2022/09/15 08:51:46;;;;;;;1999.90;999.90;;;24.70;99.90;;;;;;5050959;28;20021;-81
2022/09/15 08:54:24;;;;;;;1999.90;999.90;;;25.20;99.90;;;;;;5051980;28;20381;-82
2022/09/15 08:56:51;;;;;;;1999.90;999.90;;;24.00;99.90;;;;;;5051940;28;20023;-73
2022/09/15 08:59:18;;;;;;;1999.90;999.90;;;23.20;99.90;;;;;;5051735;28;20021;-74
2022/09/15 09:01:47;;;;;;;1999.90;999.90;;;25.60;99.90;;;;;;5052238;28;20079;-81
2022/09/15 09:04:34;;;;;;;1999.90;999.90;;;28.50;99.90;;;;;;5052718;28;20487;-74
2022/09/15 09:07:22;;;;;;;1999.90;999.90;;;28.80;99.90;;;;;;5052814;28;20091;-82
2022/09/15 09:10:45;;;;;;;1999.90;999.90;;;26.40;99.90;;;;;;5045080;28;20120;-74
2022/09/15 09:13:17;;;;;;;1999.90;999.90;;;25.20;99.90;;;;;;5012371;28;20131;-77
2022/09/15 09:16:08;;;;;;;1999.90;999.90;;;25.50;99.90;;;;;;5029731;28;20029;-83
2022/09/15 09:18:50;;;;;;;1999.90;999.90;;;25.80;99.90;;;;;;5046691;28;20067;-82
2022/09/15 09:21:32;;;;;;;1999.90;999.90;;;27.60;99.90;;;;;;5051297;28;20055;-75
2022/09/15 09:24:15;;;;;;;1999.90;999.90;;;28.40;99.90;;;;;;5051768;28;20028;-75
2022/09/15 09:26:42;;;;;;;1999.90;999.90;;;28.70;99.90;;;;;;5051686;28;20110;-75
2022/09/15 09:29:16;;;;;;;1999.90;999.90;;;27.70;99.90;;;;;;5051499;28;20068;-82
2022/09/15 09:31:44;;;;;;;1999.90;999.90;;;26.80;99.90;;;;;;5049798;28;20045;-81
2022/09/15 09:34:31;;;;;;;1999.90;999.90;;;26.80;99.90;;;;;;5050853;28;20021;-82
2022/09/15 09:36:59;;;;;;;1999.90;999.90;;;26.50;99.90;;;;;;5051707;28;20017;-74
2022/09/15 09:39:27;;;;;;;1999.90;999.90;;;25.30;99.90;;;;;;5051238;28;20105;-79
2022/09/15 09:41:54;;;;;;;1999.90;999.90;;;25.30;99.90;;;;;;5049283;28;20115;-80
2022/09/15 09:44:20;;;;;;;1999.90;999.90;;;26.20;99.90;;;;;;5059170;28;20029;-82
2022/09/15 09:46:46;;;;;;;1999.90;999.90;;;26.60;99.90;;;;;;5050555;28;20033;-82
2022/09/15 09:49:25;;;;;;;1999.90;999.90;;;26.40;99.90;;;;;;5051647;28;20049;-75
2022/09/15 09:51:58;;;;;;;1999.90;999.90;;;25.60;99.90;;;;;;5051286;28;20017;-83
2022/09/15 09:54:27;;;;;;;1999.90;999.90;;;25.00;99.90;;;;;;5051471;28;20033;-83
2022/09/15 09:56:55;;;;;;;1999.90;999.90;;;24.70;99.90;;;;;;5051442;28;20488;-75
2022/09/15 09:59:39;;;;;;;1999.90;999.90;;;24.50;99.90;;;;;;5050937;28;20017;-83
2022/09/15 10:02:10;;;;;;;1999.90;999.90;;;24.40;99.90;;;;;;5049382;28;20100;-75
2022/09/15 10:04:37;;;;;;;1999.90;999.90;;;24.10;99.90;;;;;;5050760;28;20112;-76
2022/09/15 10:07:04;;;;;;;1999.90;999.90;;;23.70;99.90;;;;;;5050975;28;20082;-77
2022/09/15 10:09:30;;;;;;;1999.90;999.90;;;23.60;99.90;;;;;;5050070;28;20108;-81
2022/09/15 10:11:59;;;;;;;1999.90;999.90;;;23.30;99.90;;;;;;5048979;28;20040;-83
2022/09/15 10:14:39;;;;;;;1999.90;999.90;;;23.10;99.90;;;;;;5050518;28;20355;-82
2022/09/15 10:17:09;;;;;;;1999.90;999.90;;;22.80;99.90;;;;;;5049351;28;20021;-76
2022/09/15 10:19:44;;;;;;;1999.90;999.90;;;22.70;99.90;;;;;;5047215;28;20014;-82
2022/09/15 10:22:20;;;;;;;1999.90;999.90;;;22.80;99.90;;;;;;5032496;28;20022;-81
2022/09/15 10:24:48;;;;;;;1999.90;999.90;;;22.90;99.90;;;;;;5041012;28;20040;-80
2022/09/15 10:27:17;;;;;;;1999.90;999.90;;;23.10;99.90;;;;;;5050963;28;20486;-73
2022/09/15 10:29:43;;;;;;;1999.90;999.90;;;23.30;99.90;;;;;;5050156;28;20123;-81
2022/09/15 10:32:26;;;;;;;1999.90;999.90;;;23.30;99.90;;;;;;5049241;28;20626;-82
2022/09/15 10:35:10;;;;;;;1999.90;999.90;;;23.50;99.90;;;;;;5042281;28;20033;-74
2022/09/15 10:38:08;;;;;;;1999.90;999.90;;;23.40;99.90;;;;;;5047147;28;20028;-83
2022/09/15 10:40:55;;;;;;;1999.90;999.90;;;23.60;99.90;;;;;;5045472;28;20032;-73
2022/09/15 10:43:23;;;;;;;1999.90;999.90;;;23.90;99.90;;;;;;5050139;28;20511;-80
2022/09/15 10:46:08;;;;;;;1999.90;999.90;;;24.00;99.90;;;;;;5048982;28;20403;-81
2022/09/15 10:48:42;;;;;;;1999.90;999.90;;;24.20;99.90;;;;;;5051231;28;20447;-82
2022/09/15 10:51:30;;;;;;;1999.90;999.90;;;24.20;99.90;;;;;;5051012;28;20488;-81
2022/09/15 10:54:04;;;;;;;1999.90;999.90;;;24.10;99.90;;;;;;5051819;28;20032;-73
2022/09/15 10:56:35;;;;;;;1999.90;999.90;;;24.10;99.90;;;;;;5053437;28;20029;-80
2022/09/15 10:59:30;;;;;;;1999.90;999.90;;;24.30;99.90;;;;;;5053224;28;20554;-73
2022/09/15 11:02:18;;;;;;;1999.90;999.90;;;24.50;99.90;;;;;;5048487;28;20177;-81
2022/09/15 11:04:55;;;;;;;1999.90;999.90;;;25.10;99.90;;;;;;5053998;28;20079;-73
2022/09/15 11:07:45;;;;;;;1999.90;999.90;;;25.20;99.90;;;;;;5054930;28;20029;-74
2022/09/15 11:10:29;;;;;;;1999.90;999.90;;;24.80;99.90;;;;;;5052534;28;20029;-81
2022/09/15 11:13:02;;;;;;;1999.90;999.90;;;24.60;99.90;;;;;;5035877;28;20036;-81
2022/09/15 11:15:37;;;;;;;1999.90;999.90;;;24.40;99.90;;;;;;5054465;28;20048;-81
2022/09/15 11:18:05;;;;;;;1999.90;999.90;;;24.40;99.90;;;;;;5047462;28;20033;-80
2022/09/15 11:20:50;;;;;;;1999.90;999.90;;;24.20;99.90;;;;;;5054378;28;20017;-73
2022/09/15 11:23:18;;;;;;;1999.90;999.90;;;24.10;99.90;;;;;;5054465;28;20036;-80
2022/09/15 11:25:48;;;;;;;1999.90;999.90;;;23.70;99.90;;;;;;5054079;28;20036;-80
2022/09/15 11:28:24;;;;;;;1999.90;999.90;;;23.40;99.90;;;;;;5053919;28;20021;-80
2022/09/15 11:31:07;;;;;;;1999.90;999.90;;;23.20;99.90;;;;;;5052577;28;20049;-78
2022/09/15 11:33:52;;;;;;;1999.90;999.90;;;23.00;99.90;;;;;;5036086;28;20440;-73
2022/09/15 11:36:33;;;;;;;1999.90;999.90;;;23.00;99.90;;;;;;5033825;28;20033;-77
2022/09/15 11:39:15;;;;;;;1999.90;999.90;;;23.00;99.90;;;;;;5044930;28;20108;-79
2022/09/15 11:41:55;;;;;;;1999.90;999.90;;;23.00;99.90;;;;;;5051068;28;20070;-81
2022/09/15 11:44:32;;;;;;;1999.90;999.90;;;23.20;99.90;;;;;;5048541;28;20025;-73
2022/09/15 11:47:04;;;;;;;1999.90;999.90;;;23.30;99.90;;;;;;5032875;28;20112;-80
2022/09/15 11:49:39;;;;;;;1999.90;999.90;;;23.40;99.90;;;;;;5048845;28;20072;-73
2022/09/15 11:52:31;;;;;;;1999.90;999.90;;;23.50;99.90;;;;;;5053316;28;20487;-79
2022/09/15 11:54:56;;;;;;;1999.90;999.90;;;23.50;99.90;;;;;;5049450;28;20423;-79
2022/09/15 11:57:33;;;;;;;1999.90;999.90;;;23.50;99.90;;;;;;5052692;28;20009;-74
2022/09/15 12:00:11;;;;;;;1999.90;999.90;;;23.70;99.90;;;;;;5051967;28;20039;-74
2022/09/15 12:03:17;;;;;;;1999.90;999.90;;;23.80;99.90;;;;;;5048874;28;20041;-79
2022/09/15 12:05:46;;;;;;;1999.90;999.90;;;24.10;99.90;;;;;;5051467;28;20037;-79
2022/09/15 12:08:35;;;;;;;1999.90;999.90;;;24.30;99.90;;;;;;5052717;28;20029;-79
2022/09/15 12:11:09;;;;;;;1999.90;999.90;;;24.60;99.90;;;;;;5051588;28;20024;-79
2022/09/15 12:13:36;;;;;;;1999.90;999.90;;;24.90;99.90;;;;;;5053344;28;20029;-73
2022/09/15 12:16:02;;;;;;;1999.90;999.90;;;25.20;99.90;;;;;;5052788;28;20032;-79
2022/09/15 12:18:51;;;;;;;1999.90;999.90;;;25.50;99.90;;;;;;5035808;28;20511;-79